createdAt,value
2022-09-14T00:00:18.554Z,20.07
2022-09-14T00:02:47.250Z,20.23
2022-09-14T00:05:18.792Z,20.93
2022-09-14T00:07:49.055Z,19.83
2022-09-14T00:10:17.346Z,20.30
2022-09-14T00:12:45.589Z,19.73
2022-09-14T00:15:13.777Z,21.00
2022-09-14T00:17:42.073Z,20.50
2022-09-14T00:20:13.722Z,21.07
2022-09-14T00:22:41.999Z,20.27
2022-09-14T00:25:11.868Z,20.40
2022-09-14T00:27:40.103Z,19.77
2022-09-14T00:30:35.769Z,20.77
2022-09-14T00:33:04.081Z,20.67
2022-09-14T00:35:32.851Z,19.63
2022-09-14T00:38:02.526Z,20.10
2022-09-14T00:40:32.126Z,20.07
2022-09-14T00:43:00.457Z,20.00
2022-09-14T00:45:29.310Z,21.23
2022-09-14T00:47:58.127Z,20.03
2022-09-14T00:50:29.070Z,19.37
2022-09-14T00:52:57.314Z,19.80
2022-09-14T00:55:25.757Z,20.20
2022-09-14T00:57:55.742Z,20.37
2022-09-14T01:00:26.879Z,20.23
2022-09-14T01:02:55.495Z,19.63
2022-09-14T01:05:29.930Z,21.23
2022-09-14T01:08:23.382Z,19.93
2022-09-14T01:11:07.397Z,19.53
2022-09-14T01:13:45.864Z,20.23
2022-09-14T01:16:21.431Z,19.93
2022-09-14T01:18:58.031Z,19.37
2022-09-14T01:21:32.037Z,19.90
2022-09-14T01:24:08.711Z,20.10
2022-09-14T01:26:59.156Z,20.23
2022-09-14T01:29:33.238Z,19.90
2022-09-14T01:32:07.250Z,19.37
2022-09-14T01:34:39.745Z,20.07
2022-09-14T01:37:13.320Z,20.03
2022-09-14T01:39:44.811Z,20.40
2022-09-14T01:42:14.332Z,20.27
2022-09-14T01:44:46.422Z,20.40
2022-09-14T01:47:18.019Z,20.37
2022-09-14T01:49:52.753Z,19.73
2022-09-14T01:52:26.193Z,19.90
2022-09-14T01:55:02.009Z,20.00
2022-09-14T01:57:35.623Z,20.47
2022-09-14T02:00:12.849Z,20.20
2022-09-14T02:02:46.792Z,19.53
2022-09-14T02:05:21.226Z,20.00
2022-09-14T02:07:49.758Z,19.87
2022-09-14T02:10:19.015Z,19.70
2022-09-14T02:12:50.683Z,20.30
2022-09-14T02:15:23.878Z,20.03
2022-09-14T02:17:52.222Z,20.00
2022-09-14T02:20:24.707Z,19.60
2022-09-14T02:22:53.683Z,19.60
2022-09-14T02:25:25.213Z,20.50
2022-09-14T02:27:54.744Z,20.80
2022-09-14T02:30:24.830Z,20.93
2022-09-14T02:33:04.196Z,20.53
2022-09-14T02:35:38.502Z,21.10
2022-09-14T02:38:15.493Z,21.57
2022-09-14T02:40:49.442Z,20.73
2022-09-14T02:43:29.289Z,20.10
2022-09-14T02:46:06.814Z,20.90
2022-09-14T02:48:41.988Z,20.80
2022-09-14T02:51:18.556Z,21.07
2022-09-14T02:53:52.934Z,21.13
2022-09-14T02:56:22.125Z,19.77
2022-09-14T02:58:51.071Z,20.03
2022-09-14T03:01:22.557Z,19.73
2022-09-14T03:03:54.144Z,21.10
2022-09-14T03:06:22.455Z,19.70
2022-09-14T03:08:53.188Z,20.00
2022-09-14T03:11:21.887Z,19.93
2022-09-14T03:13:50.161Z,20.00
2022-09-14T03:16:21.177Z,20.13
2022-09-14T03:18:49.530Z,19.60
2022-09-14T03:21:19.661Z,20.80
2022-09-14T03:23:49.882Z,20.10
2022-09-14T03:26:20.738Z,19.80
2022-09-14T03:28:52.307Z,20.40
2022-09-14T03:31:22.409Z,19.57
2022-09-14T03:33:55.079Z,21.23
2022-09-14T03:36:24.170Z,19.80
2022-09-14T03:38:55.498Z,20.53
2022-09-14T03:41:24.564Z,20.30
2022-09-14T03:43:52.628Z,18.93
2022-09-14T03:46:24.897Z,19.90
2022-09-14T03:48:56.253Z,20.30
2022-09-14T03:51:25.182Z,19.77
2022-09-14T03:53:59.367Z,20.83
2022-09-14T03:56:27.440Z,20.00
2022-09-14T03:58:58.761Z,19.77
2022-09-14T04:01:32.955Z,20.87
2022-09-14T04:04:04.115Z,20.50
2022-09-14T04:06:32.851Z,21.23
2022-09-14T04:09:00.908Z,21.03
2022-09-14T04:11:31.475Z,21.20
2022-09-14T04:14:02.480Z,20.17
2022-09-14T04:16:32.610Z,21.10
2022-09-14T04:19:00.901Z,19.53
2022-09-14T04:21:31.733Z,20.70
2022-09-14T04:24:14.731Z,21.50
2022-09-14T04:26:44.371Z,21.10
2022-09-14T04:29:14.761Z,21.43
2022-09-14T04:31:44.586Z,21.10
2022-09-14T04:34:14.684Z,21.13
2022-09-14T04:36:45.200Z,21.37
2022-09-14T04:39:17.443Z,22.27
2022-09-14T04:41:45.487Z,20.03
2022-09-14T04:44:14.026Z,20.20
2022-09-14T04:46:47.217Z,21.53
2022-09-14T04:49:16.767Z,21.60
2022-09-14T04:51:45.049Z,21.80
2022-09-14T04:54:16.204Z,22.00
2022-09-14T04:56:44.462Z,21.27
2022-09-14T04:59:13.318Z,20.07
2022-09-14T05:01:48.915Z,20.83
2022-09-14T05:04:17.948Z,22.30
2022-09-14T05:06:46.419Z,22.33
2022-09-14T05:09:23.188Z,22.30
2022-09-14T05:11:59.549Z,22.27
2022-09-14T05:14:28.004Z,22.30
2022-09-14T05:17:01.273Z,22.93
2022-09-14T05:19:29.473Z,22.00
2022-09-14T05:21:58.888Z,22.30
2022-09-14T05:24:27.408Z,22.30
2022-09-14T05:26:59.945Z,21.90
2022-09-14T05:29:31.936Z,22.47
2022-09-14T05:32:02.060Z,22.50
2022-09-14T05:34:30.177Z,21.60
2022-09-14T05:36:58.329Z,22.80
2022-09-14T05:39:26.581Z,22.20
2022-09-14T05:41:54.743Z,22.00
2022-09-14T05:44:22.803Z,22.00
2022-09-14T05:46:51.887Z,22.03
2022-09-14T05:49:21.824Z,23.57
2022-09-14T05:51:53.182Z,24.07
2022-09-14T05:54:21.613Z,23.10
2022-09-14T05:56:53.740Z,23.70
2022-09-14T05:59:21.879Z,22.30
2022-09-14T06:01:50.505Z,22.97
2022-09-14T06:04:19.431Z,24.23
2022-09-14T06:07:01.694Z,23.63
2022-09-14T06:09:36.099Z,21.83
2022-09-14T06:12:06.270Z,22.20
2022-09-14T06:14:34.452Z,23.70
2022-09-14T06:17:05.792Z,24.03
2022-09-14T06:19:33.958Z,24.23
2022-09-14T06:22:03.633Z,24.03
2022-09-14T06:24:35.778Z,24.70
2022-09-14T06:27:03.941Z,23.60
2022-09-14T06:29:35.463Z,24.20
2022-09-14T06:32:06.568Z,24.40
2022-09-14T06:34:37.627Z,25.20
2022-09-14T06:37:07.957Z,25.80
2022-09-14T06:39:38.496Z,25.60
2022-09-14T06:42:09.262Z,25.33
2022-09-14T06:44:40.273Z,24.50
2022-09-14T06:47:08.576Z,24.77
2022-09-14T06:49:38.689Z,25.10
2022-09-14T06:52:08.250Z,25.50
2022-09-14T06:54:36.330Z,26.10
2022-09-14T06:57:04.671Z,25.23
2022-09-14T06:59:32.869Z,24.50
2022-09-14T07:02:15.971Z,25.27
2022-09-14T07:04:44.176Z,24.90
2022-09-14T07:07:16.046Z,24.80
2022-09-14T07:09:47.212Z,25.43
2022-09-14T07:12:15.546Z,25.10
2022-09-14T07:14:45.970Z,24.47
2022-09-14T07:17:16.850Z,25.63
2022-09-14T07:19:45.186Z,24.70
2022-09-14T07:22:14.769Z,24.00
2022-09-14T07:24:43.559Z,24.77
2022-09-14T07:27:11.597Z,24.00
2022-09-14T07:29:39.786Z,23.07
2022-09-14T07:32:08.198Z,23.50
2022-09-14T07:34:36.395Z,23.13
2022-09-14T07:37:06.539Z,23.07
2022-09-14T07:39:36.151Z,23.53
2022-09-14T07:42:07.300Z,22.70
2022-09-14T07:44:35.840Z,22.47
2022-09-14T07:47:04.226Z,22.60
2022-09-14T07:49:32.505Z,23.40
2022-09-14T07:52:00.879Z,24.07
2022-09-14T07:54:32.304Z,23.07
2022-09-14T07:57:10.926Z,23.63
2022-09-14T07:59:40.225Z,23.23
2022-09-14T08:02:09.390Z,22.90
2022-09-14T08:04:39.255Z,23.50
2022-09-14T08:07:07.929Z,22.90
2022-09-14T08:09:41.439Z,23.50
2022-09-14T08:12:11.326Z,25.10
2022-09-14T08:14:39.441Z,23.13
2022-09-14T08:17:08.454Z,24.70
2022-09-14T08:19:37.901Z,24.40
2022-09-14T08:22:06.634Z,24.43
2022-09-14T08:24:34.766Z,25.00
2022-09-14T08:27:05.852Z,23.73
2022-09-14T08:29:35.593Z,24.47
2022-09-14T08:32:06.774Z,24.50
2022-09-14T08:34:38.358Z,26.47
2022-09-14T08:37:08.831Z,25.90
2022-09-14T08:39:39.809Z,25.03
2022-09-14T08:42:16.913Z,26.03
2022-09-14T08:44:51.383Z,25.67
2022-09-14T08:47:32.437Z,26.77
2022-09-14T08:50:12.243Z,25.97
2022-09-14T08:52:43.609Z,26.10
2022-09-14T08:55:39.940Z,27.40
2022-09-14T08:58:21.732Z,27.10
2022-09-14T09:00:55.751Z,27.20
2022-09-14T09:04:15.364Z,27.90
2022-09-14T09:07:02.767Z,27.70
2022-09-14T09:09:40.361Z,28.20
2022-09-14T09:12:13.345Z,27.80
2022-09-14T09:14:49.166Z,28.67
2022-09-14T09:17:23.008Z,29.10
2022-09-14T09:20:03.622Z,28.87
2022-09-14T09:22:56.325Z,29.57
2022-09-14T09:25:30.022Z,29.43
2022-09-14T09:28:04.142Z,30.57
2022-09-14T09:30:33.360Z,29.17
2022-09-14T09:33:05.002Z,31.47
2022-09-14T09:36:17.314Z,29.17
2022-09-14T09:39:05.324Z,29.40
2022-09-14T09:44:29.004Z,29.03
2022-09-14T09:47:02.102Z,28.30
2022-09-14T09:49:41.402Z,31.73
2022-09-14T09:52:32.926Z,29.70
2022-09-14T09:55:01.951Z,29.07
2022-09-14T09:57:35.274Z,28.77
2022-09-14T10:00:21.594Z,27.60
2022-09-14T10:03:05.224Z,28.43
2022-09-14T10:05:35.045Z,28.90
2022-09-14T10:08:11.280Z,27.80
2022-09-14T10:10:44.774Z,29.63
2022-09-14T10:13:26.293Z,29.70
2022-09-14T10:15:55.150Z,28.50
2022-09-14T10:18:24.470Z,30.43
2022-09-14T10:21:41.752Z,28.90
2022-09-14T10:24:26.871Z,29.07
2022-09-14T10:27:26.671Z,28.77
2022-09-14T10:30:10.781Z,28.40
2022-09-14T10:32:47.703Z,28.93
2022-09-14T10:35:20.771Z,28.83
2022-09-14T10:38:12.821Z,28.20
2022-09-14T10:40:50.243Z,31.50
2022-09-14T10:43:48.793Z,28.23
2022-09-14T10:46:32.078Z,28.70
2022-09-14T10:49:28.544Z,29.37
2022-09-14T10:52:14.968Z,30.23
2022-09-14T10:58:31.944Z,31.87
2022-09-14T11:01:28.150Z,30.17
2022-09-14T11:04:17.209Z,28.90
2022-09-14T11:06:58.314Z,30.17
2022-09-14T11:09:31.292Z,29.57
2022-09-14T11:12:10.489Z,31.17
2022-09-14T11:15:08.881Z,30.63
2022-09-14T11:18:09.215Z,30.07
2022-09-14T11:20:52.925Z,30.50
2022-09-14T11:23:55.424Z,30.70
2022-09-14T11:26:26.843Z,30.17
2022-09-14T11:29:15.355Z,30.27
2022-09-14T11:32:16.857Z,29.97
2022-09-14T11:34:47.738Z,30.00
2022-09-14T11:37:28.163Z,31.30
2022-09-14T11:40:04.664Z,33.23
2022-09-14T11:42:38.376Z,33.00
2022-09-14T11:45:34.304Z,32.10
2022-09-14T11:48:42.319Z,32.47
2022-09-14T11:51:15.414Z,32.50
2022-09-14T11:53:46.355Z,33.37
2022-09-14T11:56:30.393Z,35.13
2022-09-14T11:59:05.971Z,35.80
2022-09-14T12:01:38.936Z,34.00
2022-09-14T12:04:14.530Z,31.30
2022-09-14T12:06:52.328Z,33.10
2022-09-14T12:09:52.301Z,35.70
2022-09-14T12:12:35.702Z,34.53
2022-09-14T12:15:12.982Z,35.00
2022-09-14T12:17:41.807Z,35.70
2022-09-14T12:20:46.018Z,34.10
2022-09-14T12:23:27.743Z,35.43
2022-09-14T12:26:04.510Z,34.10
2022-09-14T12:28:48.556Z,33.77
2022-09-14T12:32:00.699Z,33.17
2022-09-14T12:34:39.568Z,34.00
2022-09-14T12:37:42.553Z,34.40
2022-09-14T12:40:39.138Z,33.80
2022-09-14T12:43:55.384Z,33.83
2022-09-14T12:46:47.851Z,33.00
2022-09-14T12:49:38.061Z,33.33
2022-09-14T12:52:23.310Z,32.80
2022-09-14T12:55:14.163Z,32.90
2022-09-14T12:57:53.694Z,32.43
2022-09-14T13:00:22.921Z,33.30
2022-09-14T13:03:16.794Z,32.37
2022-09-14T13:05:48.177Z,32.07
2022-09-14T13:08:22.223Z,33.10
2022-09-14T13:11:28.638Z,32.30
2022-09-14T13:14:03.485Z,31.03
2022-09-14T13:16:47.191Z,30.30
2022-09-14T13:19:34.143Z,30.37
2022-09-14T13:22:09.472Z,32.23
2022-09-14T13:24:54.302Z,32.50
2022-09-14T13:27:38.620Z,33.00
2022-09-14T13:30:23.514Z,32.20
2022-09-14T13:32:56.386Z,32.40
2022-09-14T13:35:32.126Z,33.30
2022-09-14T13:38:16.300Z,33.37
2022-09-14T13:40:59.916Z,32.33
2022-09-14T13:43:37.411Z,33.20
2022-09-14T13:46:20.460Z,31.30
2022-09-14T13:48:57.829Z,34.30
2022-09-14T13:51:45.915Z,32.23
2022-09-14T13:54:56.677Z,33.73
2022-09-14T13:58:05.616Z,33.33
2022-09-14T14:01:29.382Z,34.30
2022-09-14T14:04:03.475Z,32.23
2022-09-14T14:06:46.581Z,31.97
2022-09-14T14:09:28.251Z,30.10
2022-09-14T14:12:06.562Z,30.33
2022-09-14T14:14:52.197Z,29.50
2022-09-14T14:17:44.064Z,28.67
2022-09-14T14:20:45.906Z,28.90
2022-09-14T14:23:26.857Z,28.07
2022-09-14T14:26:10.155Z,29.67
2022-09-14T14:28:55.497Z,28.93
2022-09-14T14:31:36.702Z,28.13
2022-09-14T14:34:25.012Z,28.70
2022-09-14T14:37:10.450Z,29.63
2022-09-14T14:39:49.660Z,28.83
2022-09-14T14:42:30.546Z,27.73
2022-09-14T14:45:10.259Z,26.67
2022-09-14T14:47:46.610Z,27.10
2022-09-14T14:50:30.488Z,27.10
2022-09-14T14:53:04.545Z,25.60
2022-09-14T14:55:33.835Z,24.60
2022-09-14T14:58:10.368Z,26.23
2022-09-14T15:00:48.900Z,26.17
2022-09-14T15:03:38.312Z,26.30
2022-09-14T15:06:28.670Z,26.27
2022-09-14T15:09:10.186Z,26.10
2022-09-14T15:11:52.039Z,25.60
2022-09-14T15:14:27.163Z,25.00
2022-09-14T15:17:16.126Z,26.10
2022-09-14T15:20:01.162Z,25.43
2022-09-14T15:23:00.833Z,25.60
2022-09-14T15:25:29.151Z,25.60
2022-09-14T15:28:04.317Z,26.70
2022-09-14T15:30:39.729Z,24.33
2022-09-14T15:33:14.395Z,25.90
2022-09-14T15:36:04.531Z,24.67
2022-09-14T15:38:41.114Z,25.43
2022-09-14T15:41:17.625Z,24.80
2022-09-14T15:43:59.853Z,24.73
2022-09-14T15:46:28.718Z,24.43
2022-09-14T15:49:03.642Z,24.33
2022-09-14T15:51:38.101Z,25.67
2022-09-14T15:54:29.316Z,25.40
2022-09-14T15:57:11.881Z,26.60
2022-09-14T15:59:45.206Z,27.63
2022-09-14T16:02:26.513Z,27.10
2022-09-14T16:04:58.354Z,27.40
2022-09-14T16:07:32.387Z,28.17
2022-09-14T16:10:04.741Z,27.20
2022-09-14T16:12:41.621Z,26.30
2022-09-14T16:15:30.549Z,27.13
2022-09-14T16:18:11.322Z,26.03
2022-09-14T16:20:45.996Z,27.90
2022-09-14T16:23:20.859Z,29.10
2022-09-14T16:25:59.644Z,31.30
2022-09-14T16:28:47.381Z,30.53
2022-09-14T16:34:10.857Z,29.37
2022-09-14T16:36:50.277Z,29.90
2022-09-14T16:39:25.306Z,30.27
2022-09-14T16:42:08.372Z,28.93
2022-09-14T16:44:46.694Z,31.30
2022-09-14T16:47:23.111Z,30.73
2022-09-14T16:49:56.677Z,30.97
2022-09-14T16:52:35.524Z,33.17
2022-09-14T16:55:16.377Z,31.83
2022-09-14T16:57:53.768Z,36.00
2022-09-14T17:00:28.286Z,33.73
2022-09-14T17:03:04.965Z,35.13
2022-09-14T17:05:37.494Z,37.50
2022-09-14T17:08:11.832Z,35.57
2022-09-14T17:10:44.301Z,36.30
2022-09-14T17:13:13.908Z,31.20
2022-09-14T17:15:44.453Z,31.60
2022-09-14T17:18:12.521Z,32.40
2022-09-14T17:20:44.087Z,30.20
2022-09-14T17:23:33.883Z,30.40
2022-09-14T17:26:03.972Z,28.90
2022-09-14T17:28:34.907Z,29.03
2022-09-14T17:31:06.849Z,26.97
2022-09-14T17:33:38.820Z,28.20
2022-09-14T17:36:08.170Z,27.40
2022-09-14T17:38:46.017Z,25.70
2022-09-14T17:41:19.619Z,25.63
2022-09-14T17:43:54.538Z,26.23
2022-09-14T17:46:23.017Z,25.20
2022-09-14T17:48:54.813Z,25.60
2022-09-14T17:51:24.537Z,26.07
2022-09-14T17:53:57.030Z,25.20
2022-09-14T17:56:31.629Z,26.63
2022-09-14T17:59:07.700Z,27.30
2022-09-14T18:01:42.245Z,27.47
2022-09-14T18:04:12.686Z,27.70
2022-09-14T18:06:45.939Z,25.67
2022-09-14T18:09:45.251Z,26.87
2022-09-14T18:17:10.417Z,28.00
2022-09-14T18:19:44.147Z,28.13
2022-09-14T18:22:12.445Z,28.40
2022-09-14T18:24:50.586Z,30.50
2022-09-14T18:27:26.876Z,33.03
2022-09-14T18:30:02.762Z,31.53
2022-09-14T18:32:34.596Z,31.97
2022-09-14T18:35:04.649Z,34.47
2022-09-14T18:37:35.633Z,35.17
2022-09-14T18:40:23.772Z,32.63
2022-09-14T18:42:57.311Z,33.33
2022-09-14T18:45:26.658Z,34.90
2022-09-14T18:48:00.693Z,33.00
2022-09-14T18:50:36.909Z,32.97
2022-09-14T18:53:11.862Z,32.77
2022-09-14T18:55:51.904Z,32.23
2022-09-14T18:58:24.402Z,32.73
2022-09-14T19:01:05.154Z,32.80
2022-09-14T19:03:47.524Z,31.27
2022-09-14T19:06:21.799Z,32.27
2022-09-14T19:08:55.108Z,30.20
2022-09-14T19:11:27.827Z,31.80
2022-09-14T19:14:09.380Z,32.67
2022-09-14T19:16:40.815Z,35.80
2022-09-14T19:19:18.570Z,34.93
2022-09-14T19:22:00.235Z,36.53
2022-09-14T19:24:33.237Z,35.70
2022-09-14T19:27:09.271Z,36.20
2022-09-14T19:29:38.190Z,35.83
2022-09-14T19:32:06.509Z,35.03
2022-09-14T19:34:41.283Z,34.57
2022-09-14T19:37:13.887Z,32.80
2022-09-14T19:39:49.237Z,29.37
2022-09-14T19:42:17.480Z,29.20
2022-09-14T19:44:46.230Z,29.70
2022-09-14T19:47:17.621Z,29.93
2022-09-14T19:49:51.491Z,29.00
2022-09-14T19:52:24.444Z,30.47
2022-09-14T19:54:55.932Z,29.03
2022-09-14T19:57:24.236Z,30.30
2022-09-14T19:59:52.654Z,30.20
2022-09-14T20:02:24.390Z,30.43
2022-09-14T20:04:57.886Z,36.80
2022-09-14T20:07:30.586Z,30.20
2022-09-14T20:10:00.521Z,33.47
2022-09-14T20:12:30.587Z,31.40
2022-09-14T20:14:58.807Z,37.13
2022-09-14T20:17:32.125Z,33.80
2022-09-14T20:20:00.359Z,34.50
2022-09-14T20:22:31.217Z,28.23
2022-09-14T20:24:59.567Z,27.10
2022-09-14T20:27:29.702Z,27.77
2022-09-14T20:30:00.515Z,29.80
2022-09-14T20:32:28.740Z,30.87
2022-09-14T20:35:02.996Z,32.50
2022-09-14T20:37:34.937Z,32.57
2022-09-14T20:40:03.584Z,35.20
2022-09-14T20:42:31.756Z,34.00
2022-09-14T20:45:02.772Z,34.80
2022-09-14T20:47:30.992Z,35.37
2022-09-14T20:50:02.005Z,36.00
2022-09-14T20:52:30.049Z,34.80
2022-09-14T20:55:00.686Z,34.33
2022-09-14T20:57:30.704Z,33.20
2022-09-14T21:00:01.395Z,33.00
2022-09-14T21:02:30.707Z,32.77
2022-09-14T21:05:00.043Z,33.10
2022-09-14T21:07:28.236Z,31.37
2022-09-14T21:09:56.639Z,30.90
2022-09-14T21:12:30.451Z,33.37
2022-09-14T21:14:58.916Z,31.87
2022-09-14T21:17:27.005Z,31.47
2022-09-14T21:19:55.570Z,32.23
2022-09-14T21:22:24.771Z,33.50
2022-09-14T21:24:52.976Z,34.23
2022-09-14T21:27:21.256Z,36.33
2022-09-14T21:29:55.298Z,34.70
2022-09-14T21:32:25.272Z,34.57
2022-09-14T21:34:56.652Z,34.93
2022-09-14T21:37:31.995Z,35.00
2022-09-14T21:40:00.380Z,33.67
2022-09-14T21:42:34.245Z,33.13
2022-09-14T21:45:19.777Z,35.43
2022-09-14T21:47:49.831Z,36.10
2022-09-14T21:50:18.168Z,34.17
2022-09-14T21:52:46.409Z,35.37
2022-09-14T21:55:14.615Z,34.30
2022-09-14T21:57:50.433Z,35.60
2022-09-14T22:00:40.996Z,35.50
2022-09-14T22:03:11.347Z,34.40
2022-09-14T22:05:42.663Z,34.87
2022-09-14T22:08:14.094Z,36.23
2022-09-14T22:10:42.208Z,35.77
2022-09-14T22:13:12.211Z,36.50
2022-09-14T22:15:48.030Z,33.97
2022-09-14T22:18:24.375Z,34.00
2022-09-14T22:21:00.532Z,31.90
2022-09-14T22:23:28.884Z,30.87
2022-09-14T22:25:59.387Z,29.07
2022-09-14T22:28:27.500Z,28.43
2022-09-14T22:30:57.946Z,29.87
2022-09-14T22:33:26.073Z,29.87
2022-09-14T22:35:55.608Z,29.00
2022-09-14T22:38:24.951Z,29.10
2022-09-14T22:40:57.203Z,29.60
2022-09-14T22:43:26.316Z,27.80
2022-09-14T22:46:00.332Z,26.70
2022-09-14T22:48:31.063Z,27.20
2022-09-14T22:51:01.017Z,25.97
2022-09-14T22:53:30.213Z,26.63
2022-09-14T22:55:58.687Z,26.70
2022-09-14T22:58:28.474Z,29.60
2022-09-14T23:00:58.303Z,29.10
2022-09-14T23:03:26.812Z,28.47
2022-09-14T23:05:59.840Z,28.60
2022-09-14T23:08:29.139Z,28.97
2022-09-14T23:11:02.639Z,28.57
2022-09-14T23:13:30.729Z,27.77
2022-09-14T23:16:01.990Z,27.43
2022-09-14T23:18:30.144Z,27.47
2022-09-14T23:20:58.308Z,27.23
2022-09-14T23:23:26.737Z,26.40
2022-09-14T23:25:55.058Z,27.80
2022-09-14T23:28:23.121Z,28.13
2022-09-14T23:30:53.833Z,27.53
2022-09-14T23:33:26.427Z,27.67
2022-09-14T23:35:54.653Z,27.50
2022-09-14T23:38:23.979Z,25.37
2022-09-14T23:40:53.237Z,26.33
2022-09-14T23:43:22.095Z,27.20
2022-09-14T23:45:50.968Z,28.03
2022-09-14T23:48:19.283Z,26.83
2022-09-14T23:50:57.615Z,25.90
2022-09-14T23:53:29.062Z,27.60
2022-09-14T23:56:04.071Z,26.57
2022-09-14T23:58:32.451Z,26.73
